Time;durP1;ratioP1;P1;durP2;ratioP2;P2;SDS_P1;SDS_P2;PMS_P1;PMS_P2;Temp;Humidity;BMP_temperature;BMP_pressure;BME280_temperature;BME280_humidity;BME280_pressure;Samples;Min_cycle;Max_cycle;Signal;HPM_P1;HPM_P2
2023/09/13 00:00:17;;;;;;;4.80;3.72;;;18.30;1.00;;;;;;4955164;28;20265;-78
2023/09/13 00:02:43;;;;;;;4.05;3.40;;;18.30;1.00;;;;;;4972380;28;20227;-79
2023/09/13 00:05:09;;;;;;;6.32;4.00;;;18.40;99.90;;;;;;4955036;28;20189;-80
2023/09/13 00:07:38;;;;;;;5.18;2.90;;;18.40;99.90;;;;;;4972767;28;20181;-79
2023/09/13 00:10:04;;;;;;;4.25;2.78;;;18.30;1.00;;;;;;4955053;28;20244;-79
2023/09/13 00:12:29;;;;;;;5.15;2.53;;;18.10;95.90;;;;;;4954968;28;20181;-78
2023/09/13 00:14:55;;;;;;;6.28;2.67;;;17.90;99.90;;;;;;4972665;28;20211;-78
2023/09/13 00:17:22;;;;;;;5.38;3.20;;;17.60;1.00;;;;;;4955392;28;20177;-78
2023/09/13 00:19:48;;;;;;;7.85;4.50;;;17.50;1.00;;;;;;4973229;28;20216;-79
2023/09/13 00:22:13;;;;;;;8.40;4.70;;;17.40;93.10;;;;;;4973007;28;20221;-78
2023/09/13 00:24:39;;;;;;;7.07;5.18;;;17.50;99.90;;;;;;4972244;28;20220;-79
2023/09/13 00:27:05;;;;;;;7.82;4.80;;;17.60;99.90;;;;;;4972542;28;20634;-78
2023/09/13 00:29:33;;;;;;;6.82;4.43;;;17.80;99.90;;;;;;4954704;28;20200;-78
2023/09/13 00:32:02;;;;;;;7.80;4.28;;;18.00;99.90;;;;;;4971794;28;20177;-78
2023/09/13 00:34:27;;;;;;;3.88;3.20;;;18.00;99.90;;;;;;4954679;28;20201;-80
2023/09/13 00:36:53;;;;;;;9.15;3.40;;;17.80;1.00;;;;;;4955029;28;20256;-78
2023/09/13 00:39:19;;;;;;;5.18;3.92;;;18.10;1.00;;;;;;4954760;28;20219;-79
2023/09/13 00:41:44;;;;;;;6.00;3.20;;;18.30;99.90;;;;;;4971906;28;20216;-79
2023/09/13 00:44:10;;;;;;;5.03;3.20;;;18.40;99.90;;;;;;4971529;28;20213;-78
2023/09/13 00:46:36;;;;;;;3.78;2.85;;;18.50;99.90;;;;;;4971844;28;20189;-79
2023/09/13 00:49:03;;;;;;;5.10;2.72;;;18.60;99.90;;;;;;4954745;28;20212;-78
2023/09/13 00:51:29;;;;;;;3.90;2.70;;;18.70;1.00;;;;;;4954365;28;20204;-78
2023/09/13 00:53:56;;;;;;;4.00;2.42;;;18.70;99.90;;;;;;4971845;28;20231;-79
2023/09/13 00:56:22;;;;;;;4.28;2.70;;;18.70;1.00;;;;;;4954498;28;20188;-79
2023/09/13 00:58:51;;;;;;;4.82;2.90;;;18.70;1.00;;;;;;4954084;28;20244;-78
2023/09/13 01:01:17;;;;;;;4.72;2.60;;;18.50;1.00;;;;;;4953861;28;20244;-79
2023/09/13 01:03:43;;;;;;;3.92;2.72;;;18.40;99.90;;;;;;4971150;28;20633;-79
2023/09/13 01:06:10;;;;;;;6.60;2.80;;;18.50;1.00;;;;;;4971401;28;20734;-79
2023/09/13 01:08:42;;;;;;;5.13;2.53;;;18.20;99.90;;;;;;4953909;28;20208;-79
2023/09/13 01:11:09;;;;;;;6.90;2.55;;;18.10;99.90;;;;;;4954101;28;20668;-80
2023/09/13 01:13:35;;;;;;;5.00;2.33;;;18.20;99.90;;;;;;4953275;28;20204;-78
2023/09/13 01:16:27;;;;;;;4.97;2.22;;;18.40;99.90;;;;;;4954025;28;20605;-78
2023/09/13 01:19:28;;;;;;;4.85;2.20;;;18.40;99.90;;;;;;4971637;28;20643;-78
2023/09/13 01:22:46;;;;;;;4.22;2.00;;;18.50;99.90;;;;;;4971495;28;20189;-78
2023/09/13 01:25:39;;;;;;;3.95;2.40;;;18.60;1.00;;;;;;4931030;28;20300;-79
2023/09/13 01:28:26;;;;;;;3.85;1.80;;;18.60;99.90;;;;;;4971605;28;20180;-78
2023/09/13 01:30:52;;;;;;;3.58;1.90;;;18.70;99.90;;;;;;4971353;28;20708;-78
2023/09/13 01:33:19;;;;;;;4.18;2.22;;;18.70;1.00;;;;;;4971101;28;20216;-78
2023/09/13 01:35:44;;;;;;;2.22;1.80;;;18.70;99.90;;;;;;4953801;28;20635;-78
2023/09/13 01:38:10;;;;;;;4.45;2.20;;;18.70;99.90;;;;;;4953833;28;20205;-79
2023/09/13 01:40:39;;;;;;;3.67;1.88;;;18.70;99.90;;;;;;4971181;28;20247;-78
2023/09/13 01:43:06;;;;;;;6.35;2.28;;;18.70;1.00;;;;;;4953074;28;20303;-78
2023/09/13 01:45:33;;;;;;;4.63;2.25;;;18.70;1.00;;;;;;4953362;28;20320;-79
2023/09/13 01:48:01;;;;;;;5.63;2.53;;;18.70;1.00;;;;;;4953443;28;20185;-78
2023/09/13 01:50:27;;;;;;;3.28;1.90;;;18.70;99.90;;;;;;4970698;28;20208;-78
2023/09/13 01:52:53;;;;;;;3.65;2.10;;;18.60;99.90;;;;;;4970768;28;20193;-78
2023/09/13 01:55:18;;;;;;;3.92;2.20;;;18.40;1.00;;;;;;4970639;28;20180;-78
2023/09/13 01:57:44;;;;;;;3.47;1.85;;;18.40;1.00;;;;;;4970569;28;20660;-78
2023/09/13 02:00:11;;;;;;;4.07;1.73;;;18.40;99.90;;;;;;4953226;28;20277;-79
2023/09/13 02:02:36;;;;;;;2.85;2.10;;;18.30;99.90;;;;;;4969818;28;20185;-78
2023/09/13 02:05:03;;;;;;;4.50;2.30;;;18.30;99.90;;;;;;4953199;28;20231;-79
2023/09/13 02:07:29;;;;;;;3.63;2.00;;;18.40;99.90;;;;;;4970768;28;20275;-79
2023/09/13 02:09:54;;;;;;;5.03;2.17;;;18.50;99.90;;;;;;4970815;28;20336;-78
2023/09/13 02:12:20;;;;;;;2.92;2.03;;;18.50;60.80;;;;;;4953028;28;20177;-78
2023/09/13 02:14:45;;;;;;;4.53;1.92;;;18.50;1.00;;;;;;4952755;28;20193;-79
2023/09/13 02:17:11;;;;;;;3.97;2.17;;;18.50;1.00;;;;;;4952893;28;20184;-80
2023/09/13 02:19:37;;;;;;;3.58;2.13;;;18.50;1.00;;;;;;4970819;28;20172;-78
2023/09/13 02:22:03;;;;;;;4.18;2.15;;;18.40;1.00;;;;;;4971226;28;20219;-79
2023/09/13 02:24:28;;;;;;;3.35;2.22;;;18.30;51.40;;;;;;4970414;28;20216;-79
2023/09/13 02:26:56;;;;;;;4.85;2.15;;;18.30;1.00;;;;;;4953454;28;20196;-78
2023/09/13 02:29:22;;;;;;;3.15;2.35;;;18.40;1.00;;;;;;4953407;28;20553;-78
2023/09/13 02:31:47;;;;;;;3.55;2.10;;;18.40;1.00;;;;;;4953343;28;20200;-78
2023/09/13 02:34:13;;;;;;;3.63;2.55;;;18.40;1.00;;;;;;4952995;28;20212;-78
2023/09/13 02:36:38;;;;;;;3.33;2.40;;;18.40;1.00;;;;;;4970489;28;20181;-79
2023/09/13 02:39:04;;;;;;;3.92;2.40;;;18.30;1.00;;;;;;4970333;28;20827;-79
2023/09/13 02:41:30;;;;;;;2.60;2.10;;;18.30;99.90;;;;;;4970387;28;20195;-78
2023/09/13 02:43:55;;;;;;;5.22;2.78;;;18.30;1.00;;;;;;4952541;28;20201;-79
2023/09/13 02:46:21;;;;;;;3.15;2.30;;;18.40;1.00;;;;;;4970150;28;20252;-79
2023/09/13 02:48:46;;;;;;;5.38;2.15;;;18.40;99.90;;;;;;4952589;28;20195;-79
2023/09/13 02:51:13;;;;;;;4.80;2.58;;;18.40;99.90;;;;;;4952657;28;20216;-79
2023/09/13 02:53:39;;;;;;;4.50;2.60;;;18.40;99.90;;;;;;4952358;28;20201;-78
2023/09/13 02:56:06;;;;;;;3.03;2.15;;;18.40;1.00;;;;;;4955053;28;20185;-78
2023/09/13 02:58:32;;;;;;;3.20;2.45;;;18.30;8.20;;;;;;4956263;28;20269;-79
2023/09/13 03:00:58;;;;;;;3.42;3.03;;;18.30;99.90;;;;;;4973916;28;20191;-79
2023/09/13 03:03:24;;;;;;;5.00;3.05;;;18.30;1.00;;;;;;4973382;28;20236;-80
2023/09/13 03:05:50;;;;;;;4.32;2.53;;;18.30;58.10;;;;;;4974034;28;20189;-79
2023/09/13 03:08:15;;;;;;;3.28;2.90;;;18.30;1.00;;;;;;4973860;28;20187;-78
2023/09/13 03:10:41;;;;;;;4.93;3.08;;;18.30;1.00;;;;;;4973727;28;20207;-78
2023/09/13 03:13:07;;;;;;;3.35;2.70;;;18.20;1.00;;;;;;4955891;28;20646;-78
2023/09/13 03:15:32;;;;;;;6.82;3.15;;;18.20;1.00;;;;;;4973866;28;20185;-78
2023/09/13 03:17:58;;;;;;;5.32;2.85;;;18.20;1.00;;;;;;4973713;28;20598;-79
2023/09/13 03:20:24;;;;;;;5.97;3.90;;;18.30;1.00;;;;;;4973655;28;20187;-78
2023/09/13 03:22:50;;;;;;;4.18;3.08;;;18.30;1.00;;;;;;4973037;28;20196;-78
2023/09/13 03:25:15;;;;;;;4.70;3.13;;;18.20;1.00;;;;;;4955945;28;20193;-79
2023/09/13 03:27:41;;;;;;;4.97;3.60;;;18.30;1.00;;;;;;4973396;28;20624;-78
2023/09/13 03:30:07;;;;;;;5.55;3.47;;;18.30;93.70;;;;;;4956216;28;20575;-79
2023/09/13 03:32:32;;;;;;;5.55;3.78;;;18.30;1.00;;;;;;4973294;28;20193;-78
2023/09/13 03:34:58;;;;;;;3.85;3.38;;;18.20;1.00;;;;;;4973031;28;20314;-78
2023/09/13 03:37:24;;;;;;;4.57;4.13;;;18.20;1.00;;;;;;4973272;28;20192;-80
2023/09/13 03:39:49;;;;;;;4.38;3.97;;;18.20;99.90;;;;;;4973139;28;20725;-78
2023/09/13 03:42:15;;;;;;;7.13;3.20;;;18.10;99.90;;;;;;4955597;28;20185;-78
2023/09/13 03:44:40;;;;;;;6.10;3.30;;;18.20;99.90;;;;;;4955514;28;20292;-78
2023/09/13 03:47:06;;;;;;;3.85;3.45;;;18.30;99.90;;;;;;4973185;28;20185;-78
2023/09/13 03:49:31;;;;;;;5.80;3.47;;;18.30;1.00;;;;;;4955733;28;20277;-78
2023/09/13 03:51:57;;;;;;;4.55;3.45;;;18.30;1.00;;;;;;4955487;28;20209;-78
2023/09/13 03:54:23;;;;;;;5.95;3.95;;;18.30;1.00;;;;;;4972732;28;20221;-79
2023/09/13 03:56:48;;;;;;;4.00;3.53;;;18.30;5.50;;;;;;4973331;28;20189;-78
2023/09/13 03:59:14;;;;;;;5.55;4.28;;;18.20;99.90;;;;;;4972879;28;20189;-78
2023/09/13 04:01:39;;;;;;;5.72;4.03;;;18.00;1.00;;;;;;4972954;28;20552;-80
2023/09/13 04:04:05;;;;;;;5.05;3.60;;;18.00;99.90;;;;;;4954820;28;20240;-78
2023/09/13 04:06:31;;;;;;;4.35;3.95;;;18.00;1.00;;;;;;4972168;28;20178;-79
2023/09/13 04:08:56;;;;;;;4.97;4.07;;;18.00;1.00;;;;;;4972641;28;20188;-78
2023/09/13 04:11:22;;;;;;;5.03;4.30;;;18.10;1.00;;;;;;4972629;28;20212;-78
2023/09/13 04:13:48;;;;;;;4.15;3.70;;;18.20;1.00;;;;;;4954844;28;20249;-78
2023/09/13 04:16:15;;;;;;;5.85;3.80;;;18.10;1.00;;;;;;4972633;28;20272;-78
2023/09/13 04:18:41;;;;;;;4.00;3.63;;;18.20;99.90;;;;;;4972537;28;20180;-78
2023/09/13 04:21:07;;;;;;;5.25;3.55;;;18.20;1.00;;;;;;4955142;28;20185;-78
2023/09/13 04:23:32;;;;;;;4.15;3.50;;;18.20;99.90;;;;;;4972043;28;20220;-78
2023/09/13 04:25:58;;;;;;;4.80;3.70;;;18.20;99.90;;;;;;4972679;28;20767;-78
2023/09/13 04:28:23;;;;;;;4.07;3.10;;;18.10;1.00;;;;;;4972176;28;20193;-78
2023/09/13 04:30:49;;;;;;;3.90;3.47;;;18.10;1.00;;;;;;4972361;28;20264;-78
2023/09/13 04:33:14;;;;;;;4.60;3.60;;;18.00;99.90;;;;;;4954364;28;20292;-78
2023/09/13 04:35:40;;;;;;;3.55;3.05;;;18.00;1.00;;;;;;4972382;28;20181;-78
2023/09/13 04:38:06;;;;;;;3.67;3.28;;;18.10;1.00;;;;;;4954979;28;20192;-79
2023/09/13 04:40:32;;;;;;;5.45;4.13;;;18.00;1.00;;;;;;4972317;28;20191;-79
2023/09/13 04:43:06;;;;;;;4.13;3.28;;;18.10;99.90;;;;;;4954322;28;20211;-78
2023/09/13 04:45:33;;;;;;;3.95;3.60;;;18.10;78.50;;;;;;4972201;28;20188;-78
2023/09/13 04:47:58;;;;;;;3.85;3.55;;;18.10;1.00;;;;;;4972666;28;20267;-79
2023/09/13 04:50:24;;;;;;;4.65;4.15;;;18.10;1.00;;;;;;4954719;28;20660;-78
2023/09/13 04:52:49;;;;;;;5.00;4.20;;;18.00;99.90;;;;;;4971502;28;20218;-78
2023/09/13 04:55:18;;;;;;;4.68;4.15;;;18.00;99.90;;;;;;4971999;28;20181;-78
2023/09/13 04:57:44;;;;;;;4.53;4.13;;;18.00;99.90;;;;;;4954708;28;20177;-81
2023/09/13 05:00:11;;;;;;;4.50;3.83;;;18.00;1.00;;;;;;4954661;28;20607;-78
2023/09/13 05:02:38;;;;;;;5.07;4.00;;;18.00;1.00;;;;;;4971287;28;20217;-78
2023/09/13 05:05:04;;;;;;;8.23;3.67;;;18.10;99.90;;;;;;4954342;28;20193;-78
2023/09/13 05:07:30;;;;;;;3.97;3.63;;;18.10;1.00;;;;;;4954459;28;20216;-78
2023/09/13 05:09:55;;;;;;;4.88;3.55;;;18.20;99.90;;;;;;4971901;28;20220;-78
2023/09/13 05:12:21;;;;;;;4.53;3.60;;;18.20;1.00;;;;;;4954602;28;20177;-78
2023/09/13 05:14:47;;;;;;;4.32;3.92;;;18.30;99.90;;;;;;4971345;28;20207;-78
2023/09/13 05:17:13;;;;;;;5.05;3.97;;;18.40;99.90;;;;;;4954387;28;20280;-78
2023/09/13 05:19:39;;;;;;;9.27;5.40;;;18.40;99.90;;;;;;4953450;28;20604;-79
2023/09/13 05:22:04;;;;;;;7.10;5.40;;;18.30;99.90;;;;;;4954278;28;20677;-78
2023/09/13 05:24:30;;;;;;;5.68;5.18;;;18.20;1.00;;;;;;4954172;28;20701;-78
2023/09/13 05:26:56;;;;;;;8.10;7.20;;;18.20;99.90;;;;;;4971773;28;20232;-78
2023/09/13 05:29:22;;;;;;;10.38;7.72;;;18.20;1.00;;;;;;4971410;28;20184;-78
2023/09/13 05:31:48;;;;;;;8.85;7.95;;;18.20;1.00;;;;;;4971377;28;20767;-78
2023/09/13 05:34:14;;;;;;;9.45;8.55;;;18.20;99.90;;;;;;4971046;28;20612;-78
2023/09/13 05:36:41;;;;;;;8.95;8.05;;;18.20;1.00;;;;;;4953850;28;20183;-80
2023/09/13 05:39:07;;;;;;;9.23;8.30;;;18.00;1.00;;;;;;4970935;28;20193;-80
2023/09/13 05:41:33;;;;;;;12.10;10.90;;;18.10;99.90;;;;;;4954149;28;20196;-78
2023/09/13 05:43:58;;;;;;;11.45;9.13;;;18.20;1.00;;;;;;4971465;28;20643;-78
2023/09/13 05:46:24;;;;;;;15.20;13.43;;;18.20;99.90;;;;;;4971692;28;20273;-78
2023/09/13 05:48:50;;;;;;;14.35;12.85;;;18.10;99.90;;;;;;4954397;28;20192;-78
2023/09/13 05:51:16;;;;;;;12.15;11.05;;;18.10;99.90;;;;;;4971591;28;20213;-78
2023/09/13 05:53:42;;;;;;;12.38;10.98;;;18.10;1.00;;;;;;4971220;28;20196;-81
2023/09/13 05:56:10;;;;;;;12.23;11.02;;;18.10;99.90;;;;;;4971472;28;20196;-78
2023/09/13 05:58:36;;;;;;;13.10;11.80;;;18.00;1.00;;;;;;4954442;28;20226;-78
2023/09/13 06:01:02;;;;;;;11.45;10.35;;;18.00;99.90;;;;;;4954333;28;20189;-79
2023/09/13 06:03:30;;;;;;;12.18;11.07;;;17.90;99.90;;;;;;4954320;28;20216;-78
2023/09/13 06:05:56;;;;;;;12.10;11.00;;;18.00;1.00;;;;;;4971484;28;20176;-77
2023/09/13 06:08:22;;;;;;;11.10;10.10;;;18.10;1.00;;;;;;4971730;28;20192;-78
2023/09/13 06:10:47;;;;;;;10.63;9.68;;;18.20;99.90;;;;;;4971573;28;20209;-78
2023/09/13 06:13:15;;;;;;;11.15;10.07;;;18.20;99.90;;;;;;4970803;28;20231;-77
2023/09/13 06:15:40;;;;;;;9.65;8.82;;;18.30;1.00;;;;;;4972226;28;20189;-79
2023/09/13 06:18:06;;;;;;;9.45;8.60;;;18.30;99.90;;;;;;4971852;28;20712;-78
2023/09/13 06:20:32;;;;;;;10.63;9.50;;;18.40;1.00;;;;;;4971721;28;20181;-79
2023/09/13 06:22:59;;;;;;;9.65;8.85;;;18.50;1.00;;;;;;4971087;28;20708;-78
2023/09/13 06:25:24;;;;;;;9.20;8.40;;;18.60;99.90;;;;;;4954040;28;20177;-77
2023/09/13 06:27:50;;;;;;;9.88;8.98;;;18.60;1.00;;;;;;4970136;28;20196;-79
2023/09/13 06:30:16;;;;;;;9.82;8.90;;;18.60;99.90;;;;;;4970106;28;20348;-78
2023/09/13 06:32:42;;;;;;;10.35;9.23;;;18.60;99.90;;;;;;4971066;28;20181;-78
2023/09/13 06:35:12;;;;;;;8.45;7.65;;;18.70;99.90;;;;;;4954261;28;20497;-77
2023/09/13 06:37:38;;;;;;;9.82;8.90;;;18.90;1.00;;;;;;4971067;28;20300;-77
2023/09/13 06:40:04;;;;;;;9.27;8.45;;;18.90;99.90;;;;;;4971108;28;20275;-79
2023/09/13 06:42:29;;;;;;;9.50;8.32;;;19.00;1.00;;;;;;4971010;28;20284;-77
2023/09/13 06:44:56;;;;;;;8.15;7.35;;;19.00;99.90;;;;;;4953779;28;20226;-77
2023/09/13 06:47:22;;;;;;;7.20;6.50;;;18.90;1.00;;;;;;4971108;28;20239;-79
2023/09/13 06:49:47;;;;;;;7.57;6.88;;;18.80;1.00;;;;;;4971407;28;20201;-77
2023/09/13 06:52:13;;;;;;;6.47;5.93;;;18.70;93.00;;;;;;4970906;28;20260;-78
2023/09/13 06:54:39;;;;;;;7.13;6.43;;;18.80;1.00;;;;;;4954104;28;20291;-77
2023/09/13 06:57:08;;;;;;;7.03;6.43;;;18.80;1.00;;;;;;4954045;28;20223;-79
2023/09/13 06:59:33;;;;;;;7.13;6.43;;;18.90;1.00;;;;;;4971172;28;20173;-77
2023/09/13 07:01:59;;;;;;;8.20;6.95;;;18.80;1.00;;;;;;4971635;28;20225;-77
2023/09/13 07:04:25;;;;;;;7.65;6.60;;;18.80;99.90;;;;;;4953945;28;20208;-78
2023/09/13 07:06:50;;;;;;;7.20;6.50;;;18.70;99.90;;;;;;4971538;28;20185;-78
2023/09/13 07:09:16;;;;;;;7.05;6.45;;;18.70;1.00;;;;;;4970862;28;20672;-77
2023/09/13 07:11:41;;;;;;;6.88;6.25;;;18.80;99.90;;;;;;4971598;28;20213;-78
2023/09/13 07:14:07;;;;;;;7.32;6.63;;;18.80;1.00;;;;;;4954020;28;20696;-80
2023/09/13 07:16:32;;;;;;;7.40;6.70;;;18.90;1.00;;;;;;4971453;28;20255;-77
2023/09/13 07:18:58;;;;;;;6.63;6.00;;;18.80;1.00;;;;;;4953641;28;20184;-79
2023/09/13 07:21:24;;;;;;;7.05;6.32;;;18.90;99.90;;;;;;4953994;28;20189;-77
2023/09/13 07:23:51;;;;;;;7.47;6.75;;;19.00;1.00;;;;;;4953927;28;20229;-78
2023/09/13 07:26:16;;;;;;;6.88;6.25;;;18.90;99.90;;;;;;4971630;28;20645;-79
2023/09/13 07:28:42;;;;;;;6.82;6.20;;;18.90;1.00;;;;;;4971480;28;20196;-79
2023/09/13 07:31:07;;;;;;;5.93;5.43;;;18.90;99.90;;;;;;4971719;28;20276;-78
2023/09/13 07:33:33;;;;;;;5.75;5.25;;;19.00;99.90;;;;;;4971352;28;20212;-78
2023/09/13 07:35:59;;;;;;;5.38;4.88;;;19.10;99.90;;;;;;4971763;28;20204;-78
2023/09/13 07:38:25;;;;;;;5.18;4.68;;;19.10;99.90;;;;;;4972758;28;20557;-78
2023/09/13 07:40:50;;;;;;;5.38;4.85;;;19.20;1.00;;;;;;4954503;28;20193;-77
2023/09/13 07:43:16;;;;;;;4.90;4.50;;;19.20;99.90;;;;;;4973967;28;20208;-79
2023/09/13 07:45:42;;;;;;;4.82;3.95;;;19.10;1.00;;;;;;4975342;28;20177;-78
2023/09/13 07:48:07;;;;;;;4.78;4.38;;;19.20;1.00;;;;;;4975144;28;20236;-80
2023/09/13 07:50:38;;;;;;;5.32;4.47;;;19.20;1.00;;;;;;4975267;28;20215;-77
2023/09/13 07:53:04;;;;;;;4.57;4.18;;;19.40;1.00;;;;;;4974013;28;20571;-78
2023/09/13 07:55:30;;;;;;;4.88;4.43;;;19.40;1.00;;;;;;4975109;28;20744;-77
2023/09/13 07:57:56;;;;;;;4.68;4.28;;;19.50;1.00;;;;;;4974040;28;20267;-78
2023/09/13 08:00:22;;;;;;;4.20;3.80;;;19.60;1.00;;;;;;4974795;28;20263;-79
2023/09/13 08:02:48;;;;;;;3.88;3.58;;;19.40;99.90;;;;;;4957324;28;20193;-78
2023/09/13 08:05:17;;;;;;;3.90;3.50;;;19.40;99.90;;;;;;4965521;28;20181;-79
2023/09/13 08:07:46;;;;;;;4.55;3.33;;;19.50;99.90;;;;;;4947542;28;20185;-79
2023/09/13 08:10:12;;;;;;;3.65;3.35;;;19.70;99.90;;;;;;4957034;28;20205;-77
2023/09/13 08:12:38;;;;;;;3.70;3.40;;;19.80;1.00;;;;;;4957234;28;20232;-78
2023/09/13 08:15:04;;;;;;;3.33;3.13;;;19.80;1.00;;;;;;4974432;28;20654;-78
2023/09/13 08:17:31;;;;;;;4.72;3.35;;;20.00;1.00;;;;;;4956714;28;20279;-78
2023/09/13 08:19:57;;;;;;;3.72;3.38;;;19.90;99.90;;;;;;4957433;28;20191;-78
2023/09/13 08:22:22;;;;;;;4.40;3.95;;;19.80;99.90;;;;;;4956357;28;20189;-80
2023/09/13 08:24:48;;;;;;;4.10;3.70;;;19.90;1.00;;;;;;4973988;28;20756;-78
2023/09/13 08:27:14;;;;;;;4.53;4.13;;;19.80;1.00;;;;;;4956986;28;20192;-78
2023/09/13 08:29:40;;;;;;;5.85;5.22;;;20.00;99.90;;;;;;4974599;28;20185;-80
2023/09/13 08:32:06;;;;;;;6.00;5.40;;;19.80;99.90;;;;;;4974801;28;20213;-77
2023/09/13 08:34:32;;;;;;;5.07;4.60;;;19.70;99.90;;;;;;4974280;28;20205;-78
2023/09/13 08:36:58;;;;;;;6.30;5.70;;;19.80;1.00;;;;;;4974309;28;20181;-79
2023/09/13 08:39:24;;;;;;;7.20;6.60;;;19.80;99.90;;;;;;4973792;28;20204;-78
2023/09/13 08:41:53;;;;;;;6.35;5.85;;;19.60;99.90;;;;;;4973851;28;20279;-79
2023/09/13 08:44:20;;;;;;;6.82;6.20;;;19.90;99.90;;;;;;4974216;28;20279;-79
2023/09/13 08:46:57;;;;;;;6.72;6.13;;;20.10;1.00;;;;;;4973972;28;20575;-79
2023/09/13 08:49:23;;;;;;;6.47;5.88;;;20.10;1.00;;;;;;4973733;28;20184;-79
2023/09/13 08:51:51;;;;;;;6.88;6.20;;;20.30;1.00;;;;;;4972943;28;20193;-79
2023/09/13 08:54:17;;;;;;;6.70;6.03;;;20.30;1.00;;;;;;4955325;28;20299;-78
2023/09/13 08:56:45;;;;;;;6.90;6.30;;;20.40;1.00;;;;;;4972890;28;20285;-79
2023/09/13 08:59:12;;;;;;;5.82;5.43;;;20.70;6.50;;;;;;4954786;28;20276;-81
2023/09/13 09:01:38;;;;;;;6.88;6.28;;;21.00;99.90;;;;;;4972265;28;20248;-80
2023/09/13 09:04:04;;;;;;;7.15;6.55;;;21.00;99.90;;;;;;4956553;28;20272;-78
2023/09/13 09:06:31;;;;;;;7.10;6.50;;;21.10;1.00;;;;;;4974658;28;20280;-80
2023/09/13 09:08:57;;;;;;;6.72;6.22;;;21.00;1.00;;;;;;4973647;28;20204;-79
2023/09/13 09:11:27;;;;;;;6.40;5.90;;;20.90;1.00;;;;;;4973888;28;20221;-79
2023/09/13 09:13:59;;;;;;;6.35;5.85;;;21.00;1.00;;;;;;4973356;28;20212;-77
2023/09/13 09:16:26;;;;;;;6.35;5.75;;;20.90;34.60;;;;;;4974047;28;20177;-78
2023/09/13 09:18:54;;;;;;;5.60;5.20;;;20.80;1.00;;;;;;4974449;28;20187;-78
2023/09/13 09:21:20;;;;;;;6.38;5.78;;;20.70;37.00;;;;;;4956929;28;20213;-79
2023/09/13 09:23:46;;;;;;;6.35;5.78;;;20.70;13.00;;;;;;4973290;28;20231;-78
2023/09/13 09:26:12;;;;;;;6.32;5.82;;;20.60;1.00;;;;;;4974193;28;20180;-77
2023/09/13 09:28:37;;;;;;;6.18;5.68;;;20.70;1.00;;;;;;4974406;28;20464;-77
2023/09/13 09:31:03;;;;;;;6.80;6.20;;;20.80;1.00;;;;;;4956467;28;20215;-78
2023/09/13 09:33:31;;;;;;;5.88;5.38;;;20.80;50.10;;;;;;4956939;28;20236;-78
2023/09/13 09:35:59;;;;;;;5.97;5.47;;;21.00;1.00;;;;;;4974098;28;20184;-80
2023/09/13 09:38:28;;;;;;;5.97;5.50;;;21.10;1.00;;;;;;4974008;28;20224;-77
2023/09/13 09:40:59;;;;;;;5.90;5.30;;;21.30;1.00;;;;;;4973609;28;20251;-78
2023/09/13 09:43:25;;;;;;;5.88;5.38;;;21.40;1.00;;;;;;4955740;28;20215;-79
2023/09/13 09:45:51;;;;;;;6.28;5.78;;;21.50;1.00;;;;;;4973421;28;20188;-78
2023/09/13 09:48:17;;;;;;;6.05;5.45;;;21.50;1.00;;;;;;4956146;28;20213;-80
2023/09/13 09:50:46;;;;;;;6.30;5.80;;;21.60;1.00;;;;;;4973501;28;20213;-78
2023/09/13 09:53:13;;;;;;;5.50;5.07;;;21.40;1.00;;;;;;4973594;28;20711;-79
2023/09/13 09:55:39;;;;;;;5.45;5.05;;;21.30;1.00;;;;;;4972620;28;20185;-80
2023/09/13 09:58:05;;;;;;;6.15;5.65;;;21.30;1.00;;;;;;4971381;28;20184;-81
2023/09/13 10:00:42;;;;;;;5.80;5.20;;;21.40;1.00;;;;;;4973090;28;20251;-79
2023/09/13 10:03:07;;;;;;;5.78;5.38;;;21.40;1.00;;;;;;4955163;28;20732;-79
2023/09/13 10:05:33;;;;;;;5.75;5.25;;;21.30;1.00;;;;;;4972427;28;20184;-80
2023/09/13 10:07:58;;;;;;;6.45;5.85;;;21.30;99.90;;;;;;4972493;28;20688;-79
2023/09/13 10:10:33;;;;;;;6.15;5.65;;;21.30;99.90;;;;;;4955416;28;20762;-80
2023/09/13 10:12:59;;;;;;;5.78;5.38;;;21.20;99.90;;;;;;4971986;28;20234;-78
2023/09/13 10:15:26;;;;;;;5.20;4.80;;;21.10;99.90;;;;;;4955639;28;20181;-80
2023/09/13 10:17:53;;;;;;;3.67;3.38;;;21.00;99.90;;;;;;4973718;28;20177;-79
2023/09/13 10:20:21;;;;;;;4.70;4.30;;;21.00;99.90;;;;;;4973906;28;20189;-79
2023/09/13 10:22:49;;;;;;;4.07;3.78;;;21.10;99.90;;;;;;4972352;28;20571;-80
2023/09/13 10:25:18;;;;;;;8.27;3.67;;;21.20;99.90;;;;;;4972907;28;20180;-80
2023/09/13 10:27:48;;;;;;;3.88;3.40;;;21.30;99.90;;;;;;4954743;28;20260;-78
2023/09/13 10:30:21;;;;;;;4.05;3.75;;;21.30;99.90;;;;;;4971932;28;20215;-79
2023/09/13 10:32:52;;;;;;;3.10;2.90;;;21.60;99.90;;;;;;4971536;28;20181;-80
2023/09/13 10:35:19;;;;;;;2.90;2.70;;;21.70;99.90;;;;;;4972350;28;20195;-79
2023/09/13 10:38:11;;;;;;;2.70;2.50;;;21.80;77.80;;;;;;4971470;28;20184;-78
2023/09/13 10:40:53;;;;;;;2.55;2.35;;;21.90;66.50;;;;;;4971358;28;20188;-78
2023/09/13 10:43:21;;;;;;;2.92;2.72;;;22.00;25.60;;;;;;4953675;28;20209;-79
2023/09/13 10:45:47;;;;;;;2.63;2.42;;;21.80;20.60;;;;;;4971207;28;20181;-79
2023/09/13 10:48:16;;;;;;;2.70;2.50;;;21.80;1.00;;;;;;4946029;28;20192;-80
2023/09/13 10:50:41;;;;;;;2.35;2.15;;;21.90;3.70;;;;;;4953061;28;20240;-80
2023/09/13 10:53:09;;;;;;;2.60;2.40;;;22.00;31.10;;;;;;4952622;28;20197;-79
2023/09/13 10:55:35;;;;;;;2.90;2.42;;;22.20;1.00;;;;;;4970203;28;20177;-80
2023/09/13 10:58:03;;;;;;;2.22;2.03;;;22.40;1.00;;;;;;4952253;28;20280;-80
2023/09/13 11:00:32;;;;;;;2.70;2.50;;;22.50;1.00;;;;;;4969770;28;20560;-81
2023/09/13 11:02:58;;;;;;;4.72;2.55;;;22.40;1.00;;;;;;4971104;28;20268;-78
2023/09/13 11:05:23;;;;;;;2.50;2.30;;;22.40;1.00;;;;;;4972044;28;20680;-79
2023/09/13 11:07:49;;;;;;;2.38;2.17;;;22.40;1.00;;;;;;4972401;28;20181;-78
2023/09/13 11:10:17;;;;;;;2.40;2.22;;;22.50;1.00;;;;;;4955125;28;20796;-80
2023/09/13 11:12:48;;;;;;;2.63;2.42;;;22.50;1.00;;;;;;4971550;28;20185;-80
2023/09/13 11:15:22;;;;;;;2.17;2.08;;;22.50;1.00;;;;;;4971657;28;20181;-78
2023/09/13 11:17:53;;;;;;;2.10;2.00;;;22.60;1.00;;;;;;4976401;28;20188;-80
2023/09/13 11:20:35;;;;;;;2.00;1.90;;;22.80;1.00;;;;;;4979381;28;20192;-80
2023/09/13 11:23:09;;;;;;;2.13;2.00;;;22.70;1.00;;;;;;4961363;28;20308;-81
2023/09/13 11:25:46;;;;;;;2.30;2.10;;;22.80;1.00;;;;;;4960564;28;20185;-80
2023/09/13 11:28:27;;;;;;;2.30;2.20;;;22.70;1.00;;;;;;4958926;28;20177;-79
2023/09/13 11:31:01;;;;;;;2.42;2.22;;;22.60;1.00;;;;;;4976017;28;20224;-78
2023/09/13 11:33:28;;;;;;;5.25;2.30;;;22.60;1.00;;;;;;4959222;28;20283;-79
2023/09/13 11:35:57;;;;;;;2.15;2.05;;;22.40;1.00;;;;;;4975483;28;20181;-79
2023/09/13 11:38:23;;;;;;;2.40;2.30;;;22.40;1.00;;;;;;4958974;28;20232;-78
2023/09/13 11:40:49;;;;;;;2.60;2.40;;;22.30;1.00;;;;;;4976594;28;20195;-78
2023/09/13 11:43:22;;;;;;;2.90;2.70;;;22.20;1.00;;;;;;4977487;28;20288;-80
2023/09/13 11:45:50;;;;;;;2.53;2.30;;;22.10;1.00;;;;;;4978825;28;20192;-79
2023/09/13 11:48:41;;;;;;;2.90;2.70;;;22.00;1.00;;;;;;4964013;28;20185;-79
2023/09/13 11:51:11;;;;;;;5.43;2.65;;;21.70;1.00;;;;;;4962733;28;20209;-81
2023/09/13 11:53:37;;;;;;;3.70;2.60;;;21.50;20.90;;;;;;4961909;28;20228;-80
2023/09/13 11:56:03;;;;;;;2.30;2.10;;;21.20;99.90;;;;;;4962247;28;20189;-81
2023/09/13 11:58:39;;;;;;;2.55;2.35;;;21.40;99.90;;;;;;4962020;28;20553;-79
2023/09/13 12:01:06;;;;;;;3.42;2.50;;;21.40;99.90;;;;;;4960733;28;20188;-79
2023/09/13 12:03:39;;;;;;;2.63;2.42;;;21.50;99.90;;;;;;4975295;28;20224;-80
2023/09/13 12:06:05;;;;;;;2.92;2.65;;;21.40;99.90;;;;;;4957220;28;20185;-79
2023/09/13 12:08:34;;;;;;;2.70;2.40;;;21.40;1.00;;;;;;4956990;28;20204;-80
2023/09/13 12:11:03;;;;;;;3.00;2.80;;;21.20;99.90;;;;;;4973774;28;20200;-81
2023/09/13 12:13:49;;;;;;;2.75;2.55;;;21.10;1.00;;;;;;4956909;28;20220;-82
2023/09/13 12:16:15;;;;;;;3.08;2.65;;;20.50;99.90;;;;;;4977608;28;20781;-78
2023/09/13 12:18:42;;;;;;;2.22;2.13;;;20.50;1.00;;;;;;4978022;28;20188;-79
2023/09/13 12:21:09;;;;;;;1.88;1.77;;;20.60;1.00;;;;;;4976562;28;20878;-80
2023/09/13 12:23:37;;;;;;;1.88;1.77;;;20.60;99.90;;;;;;4975499;28;20239;-79
2023/09/13 12:26:05;;;;;;;1.60;1.50;;;20.70;99.90;;;;;;4976264;28;20189;-81
2023/09/13 12:28:34;;;;;;;1.73;1.63;;;20.70;99.90;;;;;;4975175;28;20184;-79
2023/09/13 12:31:07;;;;;;;1.70;1.60;;;20.80;99.90;;;;;;4958955;28;20223;-79
2023/09/13 12:33:34;;;;;;;1.67;1.55;;;21.10;99.90;;;;;;4961840;28;20207;-81
2023/09/13 12:36:02;;;;;;;2.15;1.95;;;21.20;99.90;;;;;;4979317;28;20201;-80
2023/09/13 12:38:48;;;;;;;2.63;2.42;;;21.40;1.00;;;;;;4978394;28;20630;-81
2023/09/13 12:41:18;;;;;;;2.67;2.47;;;20.70;1.00;;;;;;4979698;28;20208;-81
2023/09/13 12:43:47;;;;;;;2.90;2.70;;;20.70;1.00;;;;;;4961013;28;20197;-81
2023/09/13 12:46:16;;;;;;;2.85;2.63;;;20.50;1.00;;;;;;4978716;28;20674;-78
2023/09/13 12:48:42;;;;;;;3.15;2.60;;;20.80;1.00;;;;;;4978381;28;20189;-79
2023/09/13 12:51:09;;;;;;;2.88;2.50;;;21.10;1.00;;;;;;4959697;28;20211;-80